Time;durP1;ratioP1;P1;durP2;ratioP2;P2;SDS_P1;SDS_P2;PMS_P1;PMS_P2;Temp;Humidity;BMP_temperature;BMP_pressure;BME280_temperature;BME280_humidity;BME280_pressure;Samples;Min_cycle;Max_cycle;Signal;HPM_P1;HPM_P2
2021/05/22 00:02:01;;;;;;;17.30;2.45;;;;;;;14.67;50.03;99798.75;5016620;28;20392;-90
2021/05/22 00:04:27;;;;;;;14.13;2.13;;;;;;;14.60;50.80;99794.66;5019606;28;20496;-91
2021/05/22 00:06:54;;;;;;;14.18;2.65;;;;;;;14.53;51.09;99786.13;5019272;28;20073;-90
2021/05/22 00:09:21;;;;;;;8.88;2.15;;;;;;;14.28;51.89;99787.41;5017646;28;20055;-90
2021/05/22 00:11:48;;;;;;;10.73;2.08;;;;;;;14.51;51.81;99791.50;5020010;28;20038;-90
2021/05/22 00:14:14;;;;;;;13.65;2.25;;;;;;;14.50;51.46;99781.78;5023973;28;20030;-91
2021/05/22 00:16:43;;;;;;;12.20;2.45;;;;;;;14.33;51.56;99787.16;5016309;28;20075;-91
2021/05/22 00:19:09;;;;;;;9.95;2.50;;;;;;;14.39;51.94;99786.84;5017485;28;20110;-91
2021/05/22 00:21:36;;;;;;;12.88;2.33;;;;;;;14.47;51.68;99787.31;5021713;28;20083;-90
2021/05/22 00:24:12;;;;;;;12.05;2.17;;;;;;;13.99;53.11;99807.56;5017576;28;20033;-90
2021/05/22 00:26:39;;;;;;;14.55;2.72;;;;;;;14.26;54.09;99788.44;5011768;28;20029;-89
2021/05/22 00:29:06;;;;;;;11.38;2.17;;;;;;;13.97;55.16;99790.78;5034662;28;20403;-91
2021/05/22 00:31:33;;;;;;;12.30;2.35;;;;;;;14.33;54.29;99780.03;5026821;28;20068;-88
2021/05/22 00:34:01;;;;;;;13.48;2.97;;;;;;;14.01;55.37;99800.38;5027871;28;20025;-91
2021/05/22 00:36:27;;;;;;;13.80;2.10;;;;;;;13.51;57.32;99792.16;5034834;28;20037;-88
2021/05/22 00:39:00;;;;;;;16.42;3.08;;;;;;;13.70;57.28;99776.13;5034647;28;20033;-92
2021/05/22 00:41:27;;;;;;;13.60;2.40;;;;;;;13.80;57.01;99787.19;5034369;28;20025;-93
2021/05/22 00:43:54;;;;;;;14.82;2.17;;;;;;;13.47;57.96;99814.53;5033755;28;20496;-91
2021/05/22 00:46:21;;;;;;;9.25;1.77;;;;;;;13.55;57.79;99791.06;5033637;28;20053;-94
2021/05/22 00:49:13;;;;;;;15.43;2.60;;;;;;;13.75;58.19;99797.22;5034394;28;20505;-93
2021/05/22 00:51:40;;;;;;;11.15;3.00;;;;;;;13.75;57.65;99790.06;5034240;28;20026;-94
2021/05/22 00:54:07;;;;;;;11.07;2.40;;;;;;;13.40;58.29;99805.97;5034745;28;20025;-90
2021/05/22 00:56:56;;;;;;;9.70;1.95;;;;;;;13.62;58.41;99782.78;5035058;28;20120;-94
2021/05/22 00:59:23;;;;;;;11.85;2.00;;;;;;;13.25;60.44;99791.59;5033882;28;20034;-93
2021/05/22 01:01:50;;;;;;;11.48;1.58;;;;;;;13.09;60.27;99791.44;5034095;28;20072;-92
2021/05/22 01:04:19;;;;;;;9.70;1.70;;;;;;;13.01;60.83;99790.09;5032299;28;20515;-92
2021/05/22 01:06:47;;;;;;;13.18;2.20;;;;;;;13.29;61.01;99786.13;5033350;28;20041;-92
2021/05/22 01:09:18;;;;;;;13.50;2.20;;;;;;;12.94;61.32;99793.03;5033894;28;20026;-90
2021/05/22 01:12:03;;;;;;;7.67;1.90;;;;;;;12.88;62.58;99801.28;5033551;28;20029;-93
2021/05/22 01:14:41;;;;;;;10.13;2.00;;;;;;;12.68;63.49;99788.94;5033435;28;20286;-93
2021/05/22 01:17:08;;;;;;;11.30;2.00;;;;;;;12.84;63.41;99778.47;5033284;28;20043;-93
2021/05/22 01:23:10;;;;;;;10.90;2.30;;;;;;;12.41;64.73;99772.44;5131821;27;20406;-92
2021/05/22 01:28:30;;;;;;;8.75;1.83;;;;;;;12.50;64.29;99780.00;5061262;27;20424;-90
2021/05/22 01:30:57;;;;;;;6.13;2.22;;;;;;;12.65;64.13;99772.25;5068531;28;20036;-83
2021/05/22 01:33:23;;;;;;;9.05;1.90;;;;;;;12.40;64.19;99771.59;5067459;28;20032;-89
2021/05/22 01:35:50;;;;;;;10.10;2.00;;;;;;;12.51;63.55;99768.47;5069779;28;20040;-89
2021/05/22 01:38:17;;;;;;;8.07;1.67;;;;;;;12.91;63.01;99771.94;5060099;28;20025;-90
2021/05/22 01:40:50;;;;;;;5.78;1.65;;;;;;;12.67;63.66;99784.53;5060795;28;20021;-90
2021/05/22 01:43:21;;;;;;;12.10;1.92;;;;;;;12.67;63.54;99767.75;5062295;28;20041;-90
2021/05/22 01:45:51;;;;;;;12.73;1.73;;;;;;;12.82;63.36;99767.03;5059187;28;20033;-89
2021/05/22 01:48:22;;;;;;;11.10;2.55;;;;;;;12.77;63.24;99758.41;5061002;28;20036;-91
2021/05/22 01:50:58;;;;;;;11.15;2.00;;;;;;;12.92;63.26;99756.81;5064234;28;20017;-89
2021/05/22 01:53:25;;;;;;;6.97;1.55;;;;;;;12.78;63.03;99754.81;5059068;28;20029;-90
2021/05/22 01:55:52;;;;;;;9.57;1.70;;;;;;;12.74;62.76;99761.22;5055980;28;20021;-90
2021/05/22 01:58:19;;;;;;;16.42;2.17;;;;;;;12.96;62.45;99753.09;5051163;28;20061;-90
2021/05/22 02:00:45;;;;;;;12.07;2.50;;;;;;;12.95;62.41;99757.53;5061377;28;20487;-89
2021/05/22 02:03:35;;;;;;;12.75;1.92;;;;;;;12.88;62.75;99744.63;5067967;28;20032;-90
2021/05/22 02:06:07;;;;;;;9.70;1.70;;;;;;;12.79;63.19;99777.81;5056170;28;20036;-90
2021/05/22 02:08:41;;;;;;;19.75;2.30;;;;;;;12.84;63.13;99751.88;5044736;28;20075;-90
2021/05/22 02:11:08;;;;;;;12.70;2.00;;;;;;;12.73;63.38;99747.06;5060152;28;20029;-88
2021/05/22 02:13:38;;;;;;;7.60;1.40;;;;;;;12.61;63.50;99742.31;5065743;28;20039;-89
2021/05/22 02:16:06;;;;;;;13.60;1.63;;;;;;;12.87;62.98;99749.09;5068090;28;20426;-89
2021/05/22 02:18:35;;;;;;;11.95;1.65;;;;;;;12.87;62.85;99746.44;5040879;28;20492;-88
2021/05/22 02:21:04;;;;;;;16.85;2.30;;;;;;;13.05;61.76;99725.22;5055633;28;20032;-89
2021/05/22 02:23:45;;;;;;;6.00;1.20;;;;;;;13.06;61.58;99732.22;5063933;28;20024;-89
2021/05/22 02:26:12;;;;;;;6.10;1.50;;;;;;;12.89;61.60;99735.72;5065273;28;21048;-87
2021/05/22 02:28:42;;;;;;;9.60;2.03;;;;;;;13.29;60.54;99725.81;5051338;28;20116;-89
2021/05/22 02:31:10;;;;;;;8.48;1.45;;;;;;;13.02;61.33;99715.59;5053777;28;20021;-87
2021/05/22 02:33:37;;;;;;;10.27;2.00;;;;;;;13.31;61.04;99747.88;5061612;28;20052;-89
2021/05/22 02:36:12;;;;;;;11.75;2.05;;;;;;;13.01;61.58;99743.09;5064320;28;20111;-87
2021/05/22 02:38:47;;;;;;;12.65;1.65;;;;;;;13.26;61.08;99724.16;5058607;28;20020;-90
2021/05/22 02:41:14;;;;;;;11.35;1.65;;;;;;;12.99;62.20;99726.34;5038310;28;20120;-89
2021/05/22 02:43:46;;;;;;;12.88;2.25;;;;;;;13.17;61.75;99724.63;5043782;28;20025;-89
2021/05/22 02:46:15;;;;;;;6.60;1.83;;;;;;;13.02;61.17;99726.22;5047760;28;20029;-89
2021/05/22 02:48:44;;;;;;;7.50;2.00;;;;;;;13.18;60.93;99718.34;5049235;28;20167;-88
2021/05/22 02:51:14;;;;;;;10.30;1.52;;;;;;;13.22;60.71;99711.06;5046538;28;20033;-89
2021/05/22 02:53:42;;;;;;;9.90;2.20;;;;;;;13.33;60.22;99710.56;5035981;28;20049;-90
2021/05/22 02:56:14;;;;;;;9.43;2.28;;;;;;;13.15;61.03;99718.50;5046713;28;20167;-89
2021/05/22 02:58:43;;;;;;;14.82;1.90;;;;;;;13.24;61.67;99712.72;5046426;28;20654;-91
2021/05/22 03:01:13;;;;;;;13.18;1.80;;;;;;;13.10;62.27;99717.88;5054007;28;20028;-89
2021/05/22 03:03:42;;;;;;;8.07;1.45;;;;;;;13.09;61.67;99732.09;5042026;28;20033;-87
2021/05/22 03:06:08;;;;;;;11.00;2.00;;;;;;;12.88;63.09;99724.19;5042840;28;20040;-91
2021/05/22 03:08:51;;;;;;;11.35;2.47;;;;;;;12.94;62.77;99713.28;5043607;28;20021;-91
2021/05/22 03:11:18;;;;;;;;;;;;;;;13.06;62.71;99708.28;5032084;28;20468;-91
2021/05/22 03:13:46;;;;;;;9.68;2.03;;;;;;;13.01;62.72;99713.88;5054096;28;20378;-90
2021/05/22 03:16:13;;;;;;;8.60;1.67;;;;;;;13.10;62.22;99712.56;5041666;28;20029;-90
2021/05/22 03:18:40;;;;;;;5.97;1.80;;;;;;;13.16;62.25;99711.38;5040588;28;20031;-88
2021/05/22 03:21:07;;;;;;;7.03;1.70;;;;;;;13.24;61.92;99702.06;5047797;28;20060;-90
2021/05/22 03:23:39;;;;;;;4.78;1.50;;;;;;;12.94;62.96;99715.94;5052615;28;20025;-91
2021/05/22 03:26:05;;;;;;;10.73;2.10;;;;;;;13.13;61.82;99722.19;5037243;28;20467;-89
2021/05/22 03:28:32;;;;;;;3.88;1.55;;;;;;;13.17;62.40;99716.66;5032155;28;20076;-90
2021/05/22 03:30:59;;;;;;;7.53;1.95;;;;;;;13.14;62.26;99714.13;5041647;28;20022;-90
2021/05/22 03:33:26;;;;;;;6.80;1.85;;;;;;;12.72;63.91;99717.91;5046699;28;20040;-90
2021/05/22 03:35:52;;;;;;;6.88;1.88;;;;;;;12.81;63.85;99722.78;5035535;28;20444;-90
2021/05/22 03:38:18;;;;;;;6.53;2.10;;;;;;;12.94;62.88;99715.09;5047815;28;20059;-91
2021/05/22 03:40:46;;;;;;;7.70;2.22;;;;;;;12.84;63.72;99712.00;5036518;28;20031;-91
2021/05/22 03:43:20;;;;;;;12.32;2.03;;;;;;;12.73;64.06;99724.94;5037594;28;20033;-91
2021/05/22 03:45:46;;;;;;;5.90;2.17;;;;;;;12.50;64.87;99724.22;5035294;28;20068;-91
2021/05/22 03:48:13;;;;;;;9.48;1.77;;;;;;;12.52;64.69;99714.38;5048697;28;20506;-89
2021/05/22 03:50:41;;;;;;;6.20;1.80;;;;;;;12.58;64.90;99719.41;5047750;28;20112;-89
2021/05/22 03:53:08;;;;;;;3.80;1.50;;;;;;;12.53;65.12;99713.44;5037307;28;20445;-89
2021/05/22 03:55:35;;;;;;;7.55;2.67;;;;;;;12.59;65.14;99707.84;5042777;28;20021;-90
2021/05/22 03:58:02;;;;;;;5.55;1.55;;;;;;;12.51;64.97;99710.00;5047983;28;20032;-90
2021/05/22 04:00:28;;;;;;;9.15;3.42;;;;;;;12.59;65.41;99734.41;5049049;28;20034;-90
2021/05/22 04:02:55;;;;;;;9.85;2.75;;;;;;;12.85;64.80;99727.03;5045970;28;20040;-90
2021/05/22 04:05:21;;;;;;;10.35;2.20;;;;;;;12.45;65.89;99729.72;5037466;28;20049;-83
2021/05/22 04:07:49;;;;;;;9.93;2.35;;;;;;;12.77;65.57;99726.50;5033895;28;20469;-89
2021/05/22 04:10:15;;;;;;;8.18;2.13;;;;;;;12.68;65.44;99721.63;5030010;28;20021;-89
2021/05/22 04:12:41;;;;;;;8.20;1.95;;;;;;;12.80;65.30;99723.72;5034013;28;20036;-89
2021/05/22 04:15:09;;;;;;;12.88;2.42;;;;;;;12.88;65.04;99720.69;5033875;28;20022;-90
2021/05/22 04:17:35;;;;;;;10.50;2.88;;;;;;;12.69;66.05;99728.69;5033746;28;20025;-90
2021/05/22 04:20:02;;;;;;;7.25;1.90;;;;;;;12.60;65.68;99743.25;5033918;28;20017;-89
2021/05/22 04:22:28;;;;;;;11.95;2.92;;;;;;;12.66;65.96;99752.72;5033743;28;20024;-90
2021/05/22 04:24:54;;;;;;;4.60;2.17;;;;;;;12.58;66.40;99735.34;5033095;28;20025;-89
2021/05/22 04:27:20;;;;;;;7.53;1.63;;;;;;;12.71;66.22;99737.44;5033304;28;20041;-90
2021/05/22 04:29:46;;;;;;;8.98;2.05;;;;;;;12.59;66.69;99745.03;5033562;28;20126;-89
2021/05/22 04:32:13;;;;;;;6.40;1.90;;;;;;;12.66;67.29;99755.38;5033562;28;20028;-90
2021/05/22 04:34:39;;;;;;;7.30;1.92;;;;;;;12.66;66.88;99747.41;5033268;28;20389;-89
2021/05/22 04:37:05;;;;;;;11.25;2.03;;;;;;;12.36;67.68;99745.22;5033252;28;20025;-87
2021/05/22 04:39:32;;;;;;;11.13;2.28;;;;;;;12.50;68.29;99756.09;5031958;28;20432;-89
2021/05/22 04:41:58;;;;;;;7.00;2.03;;;;;;;12.62;67.90;99749.34;5033222;28;20385;-91
2021/05/22 04:44:24;;;;;;;8.98;2.15;;;;;;;12.48;67.67;99746.47;5033408;28;20427;-90
2021/05/22 04:46:51;;;;;;;10.35;2.92;;;;;;;12.41;68.24;99751.19;5033109;28;20071;-89
2021/05/22 04:49:17;;;;;;;7.35;2.10;;;;;;;12.68;67.03;99766.81;5033345;28;20029;-91
2021/05/22 04:51:45;;;;;;;5.28;1.80;;;;;;;12.60;68.25;99770.69;5033125;28;20033;-91
2021/05/22 04:54:11;;;;;;;5.97;2.30;;;;;;;12.62;67.83;99768.81;5033248;28;20030;-90
2021/05/22 04:56:38;;;;;;;11.60;2.08;;;;;;;12.44;68.56;99759.88;5033071;28;20029;-88
2021/05/22 04:59:04;;;;;;;6.72;2.03;;;;;;;12.57;68.12;99765.53;5033436;28;20033;-88
2021/05/22 05:01:31;;;;;;;9.73;2.85;;;;;;;12.32;69.17;99772.88;5032973;28;20026;-88
2021/05/22 05:03:58;;;;;;;6.63;2.22;;;;;;;12.35;68.98;99780.69;5033211;28;20021;-89
2021/05/22 05:06:27;;;;;;;8.20;2.55;;;;;;;12.28;69.29;99778.28;5033107;28;20439;-87
2021/05/22 05:08:55;;;;;;;8.90;2.22;;;;;;;12.54;68.34;99776.28;5031420;28;20102;-90
2021/05/22 05:11:21;;;;;;;6.75;2.30;;;;;;;12.26;69.79;99774.88;5032988;28;20484;-90
2021/05/22 05:13:47;;;;;;;8.13;2.53;;;;;;;12.52;69.00;99775.47;5032747;28;20145;-88
2021/05/22 05:16:14;;;;;;;13.32;2.60;;;;;;;12.37;69.94;99776.16;5032757;28;20045;-88
2021/05/22 05:18:41;;;;;;;9.32;2.40;;;;;;;12.55;68.92;99785.97;5032624;28;20465;-87
2021/05/22 05:21:08;;;;;;;12.52;3.60;;;;;;;12.66;68.80;99788.16;5032463;28;20436;-86
2021/05/22 05:23:36;;;;;;;9.68;2.80;;;;;;;12.43;69.42;99790.03;5032919;28;20080;-87
2021/05/22 05:26:03;;;;;;;7.70;2.75;;;;;;;12.20;70.35;99793.72;5032600;28;20064;-87
2021/05/22 05:28:35;;;;;;;4.82;2.72;;;;;;;12.40;70.12;99791.97;5031275;28;20036;-88
2021/05/22 05:31:15;;;;;;;15.93;3.60;;;;;;;12.59;69.65;99790.22;5031369;28;20051;-88
2021/05/22 05:33:42;;;;;;;6.63;2.35;;;;;;;12.47;70.14;99798.72;5032586;28;20084;-89
2021/05/22 05:36:08;;;;;;;8.48;2.78;;;;;;;12.30;70.71;99804.81;5030956;28;20481;-87
2021/05/22 05:38:37;;;;;;;9.02;3.03;;;;;;;12.12;71.04;99799.38;5032801;28;20033;-87
2021/05/22 05:41:03;;;;;;;8.63;3.25;;;;;;;12.15;71.31;99809.00;5032440;28;20030;-87
2021/05/22 05:43:29;;;;;;;11.55;3.38;;;;;;;12.55;69.66;99809.88;5032648;28;20025;-89
2021/05/22 05:45:56;;;;;;;12.27;3.20;;;;;;;12.29;70.87;99819.88;5020773;28;20050;-87
2021/05/22 05:48:23;;;;;;;12.88;3.05;;;;;;;12.58;70.20;99803.56;5030582;28;20484;-86
2021/05/22 05:50:49;;;;;;;12.02;4.28;;;;;;;12.50;70.30;99814.56;5032227;28;20076;-88
2021/05/22 05:53:15;;;;;;;13.15;3.75;;;;;;;12.64;69.93;99810.41;5031396;28;20118;-87
2021/05/22 05:56:03;;;;;;;9.32;2.97;;;;;;;12.68;69.83;99817.31;5032302;28;20578;-88
2021/05/22 05:58:29;;;;;;;7.32;2.80;;;;;;;12.41;71.21;99823.78;5031999;28;20468;-80
2021/05/22 06:00:55;;;;;;;10.27;3.40;;;;;;;12.33;70.90;99833.88;5029789;28;20123;-83
2021/05/22 06:03:32;;;;;;;8.60;3.10;;;;;;;12.71;70.53;99817.16;5016054;28;20506;-82
2021/05/22 06:05:59;;;;;;;6.22;3.08;;;;;;;12.65;70.12;99836.03;5026633;28;20480;-88
2021/05/22 06:08:25;;;;;;;13.10;3.55;;;;;;;12.53;70.94;99843.63;5032054;28;20029;-87
2021/05/22 06:10:53;;;;;;;9.23;3.83;;;;;;;12.51;71.31;99837.53;5031896;28;20461;-85
2021/05/22 06:13:25;;;;;;;5.55;2.80;;;;;;;12.68;71.24;99850.06;5032690;28;20122;-89
2021/05/22 06:16:00;;;;;;;10.57;3.45;;;;;;;12.74;70.58;99833.84;5035732;28;20040;-89
2021/05/22 06:18:29;;;;;;;12.95;3.45;;;;;;;12.93;69.76;99839.19;5036333;28;20120;-90
2021/05/22 06:20:57;;;;;;;9.30;3.20;;;;;;;12.84;69.92;99844.06;5035766;28;20032;-89
2021/05/22 06:23:23;;;;;;;11.05;2.83;;;;;;;12.52;71.23;99843.69;5034623;28;20040;-89
2021/05/22 06:25:50;;;;;;;7.78;3.22;;;;;;;12.80;70.76;99851.31;5034118;28;20025;-88
2021/05/22 06:28:17;;;;;;;6.63;3.15;;;;;;;12.94;70.50;99846.22;5035719;28;20045;-91
2021/05/22 06:30:43;;;;;;;9.75;3.10;;;;;;;12.77;71.04;99856.75;5035657;28;20544;-84
2021/05/22 06:33:28;;;;;;;9.38;2.92;;;;;;;12.91;70.72;99846.38;5027584;28;20396;-90
2021/05/22 06:35:54;;;;;;;7.72;2.85;;;;;;;12.82;70.56;99844.09;5035731;28;20049;-89
2021/05/22 06:38:21;;;;;;;9.40;3.60;;;;;;;12.45;72.21;99843.13;5035348;28;20503;-86
2021/05/22 06:40:47;;;;;;;11.80;3.50;;;;;;;12.71;71.74;99859.69;5035761;28;20022;-86
2021/05/22 06:43:14;;;;;;;10.65;3.42;;;;;;;12.70;71.88;99855.31;5035320;28;20040;-86
2021/05/22 06:45:42;;;;;;;6.78;3.05;;;;;;;12.65;72.24;99851.97;5022556;28;20030;-86
2021/05/22 06:48:11;;;;;;;7.35;3.10;;;;;;;12.81;71.30;99855.69;5019832;28;20494;-87
2021/05/22 06:50:38;;;;;;;7.88;3.35;;;;;;;12.73;71.81;99858.69;5025724;28;20479;-87
2021/05/22 06:53:05;;;;;;;7.65;3.60;;;;;;;12.84;71.87;99866.19;5033730;28;20037;-83
2021/05/22 06:55:32;;;;;;;8.57;3.85;;;;;;;12.87;71.97;99862.53;5038376;28;20475;-84
2021/05/22 06:57:59;;;;;;;13.25;4.00;;;;;;;12.99;71.43;99864.63;5040404;28;20037;-85
2021/05/22 07:00:26;;;;;;;5.28;3.40;;;;;;;13.05;70.79;99863.50;5036205;28;20037;-90
2021/05/22 07:02:52;;;;;;;7.82;3.55;;;;;;;12.83;71.67;99872.44;5034960;28;20026;-87
2021/05/22 07:05:18;;;;;;;12.95;3.00;;;;;;;12.67;72.17;99882.03;5035012;28;20021;-86
2021/05/22 07:07:45;;;;;;;7.38;3.35;;;;;;;13.04;70.90;99881.22;5026571;28;20034;-88
2021/05/22 07:10:12;;;;;;;5.53;3.22;;;;;;;13.23;70.63;99878.59;5033015;28;20025;-89
2021/05/22 07:12:40;;;;;;;8.77;3.53;;;;;;;13.31;70.43;99886.22;5034074;28;20037;-91
2021/05/22 07:15:08;;;;;;;6.75;3.15;;;;;;;13.25;71.05;99883.84;5035459;28;20041;-90
2021/05/22 07:17:35;;;;;;;6.70;3.10;;;;;;;13.30;70.20;99887.16;5036401;28;20029;-90
2021/05/22 07:20:02;;;;;;;7.32;3.45;;;;;;;12.86;71.52;99896.22;5042319;28;20036;-90
2021/05/22 07:22:28;;;;;;;7.80;3.03;;;;;;;12.99;71.63;99890.38;5031868;28;20479;-89
2021/05/22 07:24:55;;;;;;;8.02;3.33;;;;;;;13.20;70.54;99899.16;5029455;28;20030;-87
2021/05/22 07:27:27;;;;;;;5.93;3.40;;;;;;;13.25;71.04;99895.34;5031459;28;20480;-90
2021/05/22 07:29:54;;;;;;;12.75;6.90;;;;;;;13.04;71.42;99897.19;5033442;28;20122;-92
2021/05/22 07:32:20;;;;;;;8.15;3.65;;;;;;;12.92;71.90;99906.59;5036857;28;20165;-91
2021/05/22 07:34:47;;;;;;;6.35;3.33;;;;;;;13.04;71.80;99920.25;5024575;28;20116;-84
2021/05/22 07:37:13;;;;;;;8.35;3.67;;;;;;;13.10;71.89;99914.66;5036383;28;20029;-91
2021/05/22 07:39:39;;;;;;;7.25;3.50;;;;;;;12.65;73.18;99934.38;5012211;28;20041;-91
2021/05/22 07:42:07;;;;;;;8.55;3.28;;;;;;;13.13;71.52;99933.13;5034390;28;20104;-87
2021/05/22 07:44:49;;;;;;;11.40;4.15;;;;;;;13.22;71.56;99929.19;5040213;28;20032;-90
2021/05/22 07:47:16;;;;;;;;;;;;;;;13.24;71.09;99928.19;5028897;28;20033;-94
2021/05/22 07:49:42;;;;;;;10.57;3.40;;;;;;;13.42;71.12;99941.59;5032553;28;19927;-94
2021/05/22 07:52:13;;;;;;;8.90;4.43;;;;;;;13.52;70.62;99942.91;5037179;28;20061;-96
2021/05/22 07:54:40;;;;;;;6.15;3.38;;;;;;;13.71;70.23;99942.06;5031724;28;20041;-92
2021/05/22 07:57:09;;;;;;;8.25;3.92;;;;;;;13.71;70.74;99942.91;5030260;28;20025;-88
2021/05/22 07:59:36;;;;;;;10.35;4.25;;;;;;;13.73;70.29;99945.50;5030084;28;20029;-92
2021/05/22 08:02:04;;;;;;;8.02;3.80;;;;;;;13.63;70.43;99952.19;5033325;28;20061;-82
2021/05/22 08:04:31;;;;;;;9.98;3.97;;;;;;;13.78;70.34;99962.09;5038573;28;20465;-93
2021/05/22 08:06:59;;;;;;;14.13;4.55;;;;;;;13.99;69.78;99962.03;5034919;28;20098;-83
2021/05/22 08:09:26;;;;;;;7.93;3.28;;;;;;;14.02;69.69;99967.22;5042965;28;20025;-92
2021/05/22 08:11:52;;;;;;;10.43;4.30;;;;;;;14.12;69.66;99968.50;5049726;28;20048;-91
2021/05/22 08:14:20;;;;;;;6.70;2.40;;;;;;;14.00;70.28;99979.72;5050323;28;20029;-90
2021/05/22 08:16:46;;;;;;;5.85;2.55;;;;;;;14.23;70.09;99975.94;5050598;28;20037;-89
2021/05/22 08:19:13;;;;;;;8.02;2.72;;;;;;;14.37;69.30;99972.59;5049161;28;20032;-90
2021/05/22 08:21:41;;;;;;;8.45;2.50;;;;;;;14.40;69.60;99977.78;5052085;28;20029;-90
2021/05/22 08:24:09;;;;;;;5.60;2.45;;;;;;;14.55;69.37;99971.69;5047580;28;20033;-89
2021/05/22 08:26:38;;;;;;;6.75;2.17;;;;;;;14.57;69.66;99969.78;5034151;28;20068;-91
2021/05/22 08:29:05;;;;;;;9.45;3.22;;;;;;;14.72;69.08;99984.16;5048526;28;20031;-92
2021/05/22 08:31:35;;;;;;;9.40;2.30;;;;;;;14.87;68.80;99981.66;5031364;28;20045;-89
2021/05/22 08:34:01;;;;;;;8.95;2.33;;;;;;;14.79;68.87;99979.41;5031901;28;20384;-87
2021/05/22 08:36:29;;;;;;;9.43;2.05;;;;;;;14.55;69.31;99982.34;5037470;28;20400;-86
2021/05/22 08:38:55;;;;;;;11.90;2.65;;;;;;;14.88;68.32;99988.75;5036041;28;20400;-86
2021/05/22 08:41:28;;;;;;;7.75;1.98;;;;;;;14.71;68.54;99993.09;5049313;28;20052;-87
2021/05/22 08:43:54;;;;;;;7.03;1.60;;;;;;;14.72;68.88;99988.66;5038827;28;20048;-87
2021/05/22 08:46:21;;;;;;;8.95;1.95;;;;;;;14.91;68.34;99985.03;5050192;28;20037;-88
2021/05/22 08:48:49;;;;;;;5.88;1.67;;;;;;;15.06;67.84;99996.72;5043762;28;20045;-90
2021/05/22 08:51:20;;;;;;;6.18;1.33;;;;;;;15.11;67.48;99992.00;5035183;28;20045;-92
2021/05/22 08:53:47;;;;;;;5.03;1.40;;;;;;;15.12;67.37;100002.59;5044574;28;20048;-84
2021/05/22 08:56:14;;;;;;;4.72;1.45;;;;;;;14.98;68.00;100013.97;5034839;28;20472;-85
2021/05/22 08:58:41;;;;;;;5.03;1.30;;;;;;;15.03;67.79;100011.94;5034679;28;20026;-88
2021/05/22 09:01:07;;;;;;;4.20;1.60;;;;;;;15.19;67.05;100005.81;5032417;28;20033;-90
2021/05/22 09:03:35;;;;;;;4.68;1.10;;;;;;;14.97;67.47;100012.25;5034625;28;20029;-87
2021/05/22 09:06:02;;;;;;;3.67;1.10;;;;;;;14.79;67.47;100022.06;5032816;28;20030;-84
2021/05/22 09:09:05;;;;;;;2.25;1.10;;;;;;;15.10;66.58;100019.63;5032817;28;20896;-95
2021/05/22 09:11:46;;;;;;;5.35;1.40;;;;;;;14.94;67.12;100024.88;5049007;28;20087;-92
2021/05/22 09:14:43;;;;;;;3.25;1.52;;;;;;;14.98;67.40;100022.00;5031069;28;20057;-89
2021/05/22 09:17:11;;;;;;;4.82;2.13;;;;;;;14.78;68.12;100031.00;5036262;28;20030;-89
2021/05/22 09:19:37;;;;;;;4.28;2.05;;;;;;;14.69;68.15;100042.13;5042832;28;20404;-90
2021/05/22 09:22:24;;;;;;;4.10;2.70;;;;;;;14.91;67.30;100038.38;5038498;28;20029;-88
2021/05/22 09:25:07;;;;;;;5.68;2.92;;;;;;;14.86;67.48;100042.13;5033110;28;20113;-90
2021/05/22 09:27:36;;;;;;;4.93;2.97;;;;;;;14.85;67.43;100059.09;5043933;28;20028;-92
2021/05/22 09:30:06;;;;;;;6.97;3.25;;;;;;;14.84;67.39;100056.47;5032963;28;20034;-91
2021/05/22 09:32:32;;;;;;;4.38;2.92;;;;;;;14.77;67.64;100065.75;5032478;28;20026;-91
2021/05/22 09:34:58;;;;;;;6.50;3.58;;;;;;;14.81;67.49;100065.50;5032991;28;20061;-91
2021/05/22 09:37:52;;;;;;;9.70;4.15;;;;;;;14.77;67.70;100069.28;5032986;28;20030;-91
2021/05/22 09:40:22;;;;;;;7.90;4.13;;;;;;;14.59;67.98;100081.66;5022683;28;20129;-90
2021/05/22 09:42:49;;;;;;;9.23;4.28;;;;;;;14.66;67.62;100083.13;5033114;28;20512;-90
2021/05/22 09:48:25;;;;;;;2.30;1.17;;;;;;;14.47;67.12;100100.94;5070000;28;20389;-84
2021/05/22 09:51:05;;;;;;;4.63;1.30;;;;;;;14.42;66.75;100103.81;5057472;28;20041;-92
2021/05/22 09:53:35;;;;;;;4.90;1.60;;;;;;;14.20;66.94;100118.16;5040529;28;20033;-89
2021/05/22 09:56:19;;;;;;;4.57;1.08;;;;;;;14.12;66.65;100120.31;5053196;28;20428;-94
2021/05/22 09:58:56;;;;;;;6.43;1.55;;;;;;;14.05;67.31;100134.84;5048370;28;20056;-93
2021/05/22 10:01:29;;;;;;;3.25;1.55;;;;;;;13.97;67.32;100144.97;5039125;28;20473;-93
2021/05/22 10:04:14;;;;;;;3.67;1.67;;;;;;;14.07;67.53;100141.00;5049589;28;20037;-92
2021/05/22 10:06:41;;;;;;;6.35;2.00;;;;;;;14.21;67.07;100148.34;5054021;28;20037;-91
2021/05/22 10:09:13;;;;;;;7.20;2.53;;;;;;;14.42;67.39;100157.13;5050470;28;20477;-93
2021/05/22 10:12:01;;;;;;;3.65;1.85;;;;;;;14.50;67.00;100160.28;5048705;28;20127;-95
2021/05/22 10:14:32;;;;;;;5.13;2.58;;;;;;;14.51;66.61;100177.16;5051734;28;20147;-94
2021/05/22 10:16:58;;;;;;;7.28;2.13;;;;;;;14.46;66.41;100177.38;5050460;28;20084;-92
2021/05/22 10:19:26;;;;;;;5.90;2.10;;;;;;;14.29;66.77;100177.28;5060313;28;20052;-92
2021/05/22 10:21:53;;;;;;;7.05;2.67;;;;;;;14.47;66.10;100181.75;5060613;28;20086;-93
2021/05/22 10:24:20;;;;;;;8.63;2.63;;;;;;;14.55;66.34;100200.94;5052483;28;20028;-92
2021/05/22 10:26:48;;;;;;;5.50;2.45;;;;;;;14.23;66.03;100200.63;5047297;28;20027;-93
2021/05/22 10:29:16;;;;;;;5.50;2.92;;;;;;;14.29;66.19;100202.13;5052082;28;20041;-91
2021/05/22 10:31:46;;;;;;;5.47;2.90;;;;;;;14.08;65.93;100212.84;5050156;28;20021;-93
2021/05/22 10:34:14;;;;;;;4.13;2.70;;;;;;;14.09;65.83;100219.00;5054389;28;20044;-92
2021/05/22 10:36:54;;;;;;;6.45;2.53;;;;;;;14.00;65.92;100222.09;5066479;28;20033;-92
2021/05/22 10:39:41;;;;;;;6.72;3.47;;;;;;;14.09;65.88;100232.34;5055923;28;20547;-92
2021/05/22 10:45:31;;;;;;;8.43;4.30;;;;;;;14.23;66.29;100245.91;5050972;28;20419;-89
2021/05/22 10:48:04;;;;;;;7.75;4.18;;;;;;;14.14;66.42;100235.66;5058284;28;20037;-92
2021/05/22 10:50:35;;;;;;;;;;;;;;;14.49;65.64;100248.31;5056241;28;20021;-93
2021/05/22 11:01:46;;;;;;;7.07;4.53;;;;;;;13.98;65.81;100287.88;5080300;27;20534;-84
2021/05/22 11:09:51;;;;;;;11.85;4.95;;;;;;;14.19;65.42;100294.94;5098409;27;20416;-83
2021/05/22 11:15:01;;;;;;;10.15;4.63;;;;;;;14.06;65.43;100307.06;5076415;28;20424;-87
2021/05/22 11:25:51;;;;;;;26.45;15.70;;;;;;;14.48;63.63;100322.09;5082855;27;20609;-86
2021/05/22 11:28:21;;;;;;;9.07;4.13;;;;;;;14.35;64.30;100334.22;5057238;28;20037;-86
2021/05/22 11:30:50;;;;;;;11.23;4.75;;;;;;;14.32;63.81;100334.38;5060174;28;20028;-90
2021/05/22 11:36:13;;;;;;;9.23;4.15;;;;;;;14.16;63.23;100363.50;5083163;27;20398;-89
2021/05/22 11:38:40;;;;;;;10.48;3.30;;;;;;;14.18;62.62;100354.50;5056496;28;20029;-89
2021/05/22 11:41:08;;;;;;;10.77;4.00;;;;;;;14.29;62.13;100369.16;5053697;28;20400;-89
2021/05/22 11:43:39;;;;;;;11.77;2.80;;;;;;;14.27;62.17;100360.34;5063520;28;20063;-91
2021/05/22 11:46:09;;;;;;;8.45;2.55;;;;;;;14.36;61.27;100366.13;5066209;28;20029;-87
2021/05/22 11:48:53;;;;;;;9.10;2.88;;;;;;;14.30;61.00;100393.06;5058187;28;20029;-88
2021/05/22 11:54:04;;;;;;;7.93;3.22;;;;;;;14.65;61.03;100392.50;5111655;27;20730;-89
2021/05/22 11:56:34;;;;;;;7.57;3.70;;;;;;;14.64;60.60;100388.06;5114254;28;20046;-90
2021/05/22 11:59:02;;;;;;;8.38;2.92;;;;;;;14.67;60.14;100390.63;5113093;28;20055;-82
2021/05/22 12:01:33;;;;;;;7.28;3.30;;;;;;;14.88;59.50;100400.34;5110297;28;20028;-88
2021/05/22 12:04:04;;;;;;;5.65;2.63;;;;;;;14.24;60.36;100407.53;5113655;27;20063;-90
2021/05/22 12:06:39;;;;;;;18.98;3.85;;;;;;;14.50;60.02;100415.31;5106591;28;20055;-82
2021/05/22 12:09:22;;;;;;;8.75;4.20;;;;;;;14.55;60.70;100422.22;5108555;28;20107;-83
2021/05/22 12:14:45;;;;;;;6.53;2.58;;;;;;;14.62;59.98;100425.47;5111263;27;20408;-89
2021/05/22 12:17:14;;;;;;;5.97;3.10;;;;;;;14.69;59.65;100428.75;5112798;28;20058;-91
2021/05/22 12:19:45;;;;;;;9.60;3.03;;;;;;;14.71;59.99;100432.22;5111382;28;20024;-91
2021/05/22 12:22:13;;;;;;;10.18;3.13;;;;;;;14.64;60.01;100431.59;5110449;28;20091;-92
2021/05/22 12:24:41;;;;;;;10.50;2.65;;;;;;;14.75;59.66;100464.97;5110808;28;20024;-92
2021/05/22 12:27:18;;;;;;;8.65;2.90;;;;;;;14.66;58.53;100458.22;5109258;28;20119;-92